Time,TemperatureF,DewpointF,PressureIn,WindDirection,WindDirectionDegrees,WindSpeedMPH,WindSpeedGustMPH,Humidity,HourlyPrecipIn,Conditions,Clouds,dailyrainin,SolarRadiationWatts/m^2,SoftwareType,DateUTC
2013-05-04 00:02:00,54.0,53.0,-100.00,SE,127,0.0,1.0,96,0.00,,,0.00,0.000000,,2013-05-04 10:02:00,
2013-05-04 00:12:00,54.0,53.0,-100.00,SE,127,0.0,1.0,96,0.00,,,0.00,0.000000,,2013-05-04 10:12:00,
2013-05-04 00:42:00,53.0,52.0,-100.00,SE,135,0.0,1.0,96,0.00,,,0.00,0.000000,,2013-05-04 10:42:00,
2013-05-04 00:53:00,53.0,52.0,-100.00,SE,135,0.0,1.0,96,0.00,,,0.00,0.000000,,2013-05-04 10:53:00,
2013-05-04 01:02:00,53.0,52.0,-100.00,SE,135,0.0,1.0,96,0.00,,,0.00,0.000000,,2013-05-04 11:02:00,
2013-05-04 01:11:00,53.0,52.0,-100.00,SE,135,0.0,1.0,96,0.00,,,0.00,0.000000,,2013-05-04 11:11:00,
2013-05-04 01:21:00,53.0,52.0,-100.00,SE,135,0.0,1.0,96,0.00,,,0.00,0.000000,,2013-05-04 11:21:00,
2013-05-04 01:22:00,53.0,52.0,-100.00,SE,140,0.0,1.0,96,0.00,,,0.00,0.000000,,2013-05-04 11:22:00,
2013-05-04 01:46:00,53.0,52.0,-100.00,SE,140,0.0,1.0,96,0.00,,,0.00,0.000000,,2013-05-04 11:46:00,
2013-05-04 02:00:00,53.0,52.0,-100.00,SE,140,0.0,1.0,96,0.00,,,0.00,0.000000,,2013-05-04 12:00:00,
2013-05-04 02:12:00,53.0,52.0,-100.00,SE,140,0.0,1.0,96,0.00,,,0.00,0.000000,,2013-05-04 12:12:00,
2013-05-04 02:42:00,53.0,52.0,-100.00,SSE,149,0.0,1.0,96,0.00,,,0.00,0.000000,,2013-05-04 12:42:00,
2013-05-04 02:52:00,53.0,52.0,-100.00,SSE,149,0.0,1.0,96,0.00,,,0.00,0.000000,,2013-05-04 12:52:00,
2013-05-04 03:01:00,53.0,52.0,-100.00,SSE,149,0.0,1.0,96,0.00,,,0.00,0.000000,,2013-05-04 13:01:00,
2013-05-04 03:11:00,53.0,52.0,-100.00,SSE,149,0.0,1.0,96,0.00,,,0.00,0.000000,,2013-05-04 13:11:00,
2013-05-04 03:21:00,53.0,52.0,-100.00,SSE,149,0.0,1.0,96,0.00,,,0.00,0.000000,,2013-05-04 13:21:00,
2013-05-04 03:42:00,52.0,51.0,-100.00,SE,128,0.0,2.0,97,0.00,,,-99.99,0.000000,,2013-05-04 13:42:00,
2013-05-04 03:52:00,52.0,51.0,-100.00,SE,128,0.0,2.0,97,0.00,,,-99.99,0.000000,,2013-05-04 13:52:00,
2013-05-04 04:02:00,52.0,51.0,-100.00,SE,128,0.0,2.0,97,0.00,,,-99.99,0.000000,,2013-05-04 14:02:00,
2013-05-04 04:11:00,52.0,51.0,-100.00,SE,128,0.0,2.0,97,0.00,,,-99.99,0.000000,,2013-05-04 14:11:00,
2013-05-04 04:21:00,52.0,51.0,-100.00,SE,128,0.0,2.0,97,0.00,,,-99.99,0.000000,,2013-05-04 14:21:00,
2013-05-04 04:42:00,52.0,51.0,-100.00,SE,125,0.0,1.0,96,0.00,,,0.00,0.000000,,2013-05-04 14:42:00,
2013-05-04 04:52:00,52.0,51.0,-100.00,SE,125,0.0,1.0,96,0.00,,,0.00,0.000000,,2013-05-04 14:52:00,
2013-05-04 05:01:00,52.0,51.0,-100.00,SE,125,0.0,1.0,96,0.00,,,0.00,0.000000,,2013-05-04 15:01:00,
2013-05-04 05:11:00,52.0,51.0,-100.00,SE,125,0.0,1.0,96,0.00,,,0.00,0.000000,,2013-05-04 15:11:00,
2013-05-04 05:21:00,52.0,51.0,-100.00,SE,125,0.0,1.0,96,0.00,,,0.00,0.000000,,2013-05-04 15:21:00,
2013-05-04 05:22:00,51.0,50.0,-100.00,SE,127,0.0,2.0,96,0.00,,,0.00,0.000000,,2013-05-04 15:22:00,
2013-05-04 05:43:00,51.0,50.0,-100.00,SE,127,0.0,2.0,96,0.00,,,0.00,0.000000,,2013-05-04 15:43:00,
2013-05-04 05:53:00,51.0,50.0,-100.00,SE,127,0.0,2.0,96,0.00,,,0.00,0.000000,,2013-05-04 15:53:00,
2013-05-04 06:03:00,51.0,50.0,-100.00,SE,127,0.0,2.0,96,0.00,,,0.00,0.000000,,2013-05-04 16:03:00,
2013-05-04 06:12:00,51.0,50.0,-100.00,SE,127,0.0,2.0,96,0.00,,,0.00,0.000000,,2013-05-04 16:12:00,
2013-05-04 06:22:00,51.0,49.0,-100.00,SE,144,0.0,3.0,94,0.00,,,0.00,0.000000,,2013-05-04 16:22:00,
2013-05-04 06:42:00,51.0,49.0,-100.00,SE,144,0.0,3.0,94,0.00,,,0.00,0.000000,,2013-05-04 16:42:00,
2013-05-04 06:52:00,51.0,49.0,-100.00,SE,144,0.0,3.0,94,0.00,,,0.00,0.000000,,2013-05-04 16:52:00,
2013-05-04 07:02:00,51.0,49.0,-100.00,SE,144,0.0,3.0,94,0.00,,,0.00,0.000000,,2013-05-04 17:02:00,
2013-05-04 07:12:00,51.0,49.0,-100.00,SE,144,0.0,3.0,94,0.00,,,0.00,0.000000,,2013-05-04 17:12:00,
2013-05-04 07:42:00,52.0,51.0,-100.00,SSE,165,0.0,2.0,95,0.00,,,0.00,30.000000,,2013-05-04 17:42:00,
2013-05-04 07:52:00,52.0,51.0,-100.00,SSE,165,0.0,2.0,95,0.00,,,0.00,30.000000,,2013-05-04 17:52:00,
2013-05-04 08:01:00,52.0,51.0,-100.00,SSE,165,0.0,2.0,95,0.00,,,0.00,30.000000,,2013-05-04 18:01:00,
2013-05-04 08:12:00,52.0,51.0,-100.00,SSE,165,0.0,2.0,95,0.00,,,0.00,30.000000,,2013-05-04 18:12:00,
2013-05-04 08:21:00,52.0,51.0,-100.00,SSE,165,0.0,2.0,95,0.00,,,0.00,30.000000,,2013-05-04 18:21:00,
2013-05-04 08:42:00,56.0,50.0,-100.00,SE,130,0.0,2.0,81,0.00,,,0.00,222.000000,,2013-05-04 18:42:00,
2013-05-04 08:52:00,56.0,50.0,-100.00,SE,130,0.0,2.0,81,0.00,,,0.00,222.000000,,2013-05-04 18:52:00,
2013-05-04 09:01:00,56.0,50.0,-100.00,SE,130,0.0,2.0,81,0.00,,,0.00,222.000000,,2013-05-04 19:01:00,
2013-05-04 09:11:00,56.0,50.0,-100.00,SE,130,0.0,2.0,81,0.00,,,0.00,222.000000,,2013-05-04 19:11:00,
2013-05-04 09:21:00,56.0,50.0,-100.00,SE,130,0.0,2.0,81,0.00,,,0.00,222.000000,,2013-05-04 19:21:00,
2013-05-04 09:42:00,63.0,54.0,-100.00,NNW,339,1.0,3.0,73,0.00,,,0.00,413.000000,,2013-05-04 19:42:00,
2013-05-04 09:52:00,63.0,54.0,-100.00,NNW,339,1.0,3.0,73,0.00,,,0.00,413.000000,,2013-05-04 19:52:00,
2013-05-04 10:02:00,63.0,54.0,-100.00,NNW,339,1.0,3.0,73,0.00,,,0.00,413.000000,,2013-05-04 20:02:00,
2013-05-04 10:11:00,63.0,54.0,-100.00,NNW,339,1.0,3.0,73,0.00,,,0.00,413.000000,,2013-05-04 20:11:00,
2013-05-04 10:21:00,63.0,54.0,-100.00,NNW,339,1.0,3.0,73,0.00,,,0.00,413.000000,,2013-05-04 20:21:00,
2013-05-04 10:22:00,62.0,55.0,-100.00,NW,318,1.0,3.0,78,0.00,,,0.00,209.000000,,2013-05-04 20:22:00,
2013-05-04 10:52:00,62.0,55.0,-100.00,NW,318,1.0,3.0,78,0.00,,,0.00,209.000000,,2013-05-04 20:52:00,
2013-05-04 11:02:00,62.0,55.0,-100.00,NW,318,1.0,3.0,78,0.00,,,0.00,209.000000,,2013-05-04 21:02:00,
2013-05-04 11:11:00,62.0,55.0,-100.00,NW,318,1.0,3.0,78,0.00,,,0.00,209.000000,,2013-05-04 21:11:00,
2013-05-04 11:22:00,63.0,55.0,-100.00,West,280,1.0,4.0,76,0.00,,,0.00,255.000000,,2013-05-04 21:22:00,
2013-05-04 11:43:00,63.0,55.0,-100.00,West,280,1.0,4.0,76,0.00,,,0.00,255.000000,,2013-05-04 21:43:00,
2013-05-04 11:53:00,63.0,55.0,-100.00,West,280,1.0,4.0,76,0.00,,,0.00,255.000000,,2013-05-04 21:53:00,
2013-05-04 12:02:00,63.0,55.0,-100.00,West,280,1.0,4.0,76,0.00,,,0.00,255.000000,,2013-05-04 22:02:00,
2013-05-04 12:12:00,63.0,55.0,-100.00,West,280,1.0,4.0,76,0.00,,,0.00,255.000000,,2013-05-04 22:12:00,
2013-05-04 12:42:00,68.0,53.0,-100.00,SSW,213,1.0,8.0,59,0.00,,,0.00,657.000000,,2013-05-04 22:42:00,
2013-05-04 12:52:00,68.0,53.0,-100.00,SSW,213,1.0,8.0,59,0.00,,,0.00,657.000000,,2013-05-04 22:52:00,
2013-05-04 13:02:00,68.0,53.0,-100.00,SSW,213,1.0,8.0,59,0.00,,,0.00,657.000000,,2013-05-04 23:02:00,
2013-05-04 13:11:00,68.0,53.0,-100.00,SSW,213,1.0,8.0,59,0.00,,,0.00,657.000000,,2013-05-04 23:11:00,
2013-05-04 13:21:00,68.0,53.0,-100.00,SSW,213,1.0,8.0,59,0.00,,,0.00,657.000000,,2013-05-04 23:21:00,
2013-05-04 13:42:00,67.0,60.0,-100.00,WNW,295,2.0,9.0,77,0.00,,,0.00,420.000000,,2013-05-04 23:42:00,
2013-05-04 13:52:00,67.0,60.0,-100.00,WNW,295,2.0,9.0,77,0.00,,,0.00,420.000000,,2013-05-04 23:52:00,
2013-05-04 14:01:00,67.0,60.0,-100.00,WNW,295,2.0,9.0,77,0.00,,,0.00,420.000000,,2013-05-05 00:01:00,
2013-05-04 14:11:00,67.0,60.0,-100.00,WNW,295,2.0,9.0,77,0.00,,,0.00,420.000000,,2013-05-05 00:11:00,
2013-05-04 14:21:00,67.0,60.0,-100.00,WNW,295,2.0,9.0,77,0.00,,,0.00,420.000000,,2013-05-05 00:21:00,
2013-05-04 14:42:00,67.0,59.0,-100.00,WNW,291,2.0,9.0,76,0.00,,,0.00,461.000000,,2013-05-05 00:42:00,
2013-05-04 14:52:00,67.0,59.0,-100.00,WNW,291,2.0,9.0,76,0.00,,,0.00,461.000000,,2013-05-05 00:52:00,
2013-05-04 15:01:00,67.0,59.0,-100.00,WNW,291,2.0,9.0,76,0.00,,,0.00,461.000000,,2013-05-05 01:01:00,
2013-05-04 15:11:00,67.0,59.0,-100.00,WNW,291,2.0,9.0,76,0.00,,,0.00,461.000000,,2013-05-05 01:11:00,
2013-05-04 15:21:00,67.0,59.0,-100.00,WNW,291,2.0,9.0,76,0.00,,,0.00,461.000000,,2013-05-05 01:21:00,
2013-05-04 15:42:00,67.0,59.0,-100.00,WNW,290,2.0,7.0,75,0.00,,,0.00,375.000000,,2013-05-05 01:42:00,
2013-05-04 15:52:00,67.0,59.0,-100.00,WNW,290,2.0,7.0,75,0.00,,,0.00,375.000000,,2013-05-05 01:52:00,
2013-05-04 16:02:00,67.0,59.0,-100.00,WNW,290,2.0,7.0,75,0.00,,,0.00,375.000000,,2013-05-05 02:02:00,
2013-05-04 16:11:00,67.0,59.0,-100.00,WNW,290,2.0,7.0,75,0.00,,,0.00,375.000000,,2013-05-05 02:11:00,
2013-05-04 16:21:00,67.0,59.0,-100.00,WNW,290,2.0,7.0,75,0.00,,,0.00,375.000000,,2013-05-05 02:21:00,
2013-05-04 16:42:00,68.0,59.0,-100.00,West,273,2.0,8.0,74,0.00,,,0.00,462.000000,,2013-05-05 02:42:00,
2013-05-04 16:52:00,68.0,59.0,-100.00,West,273,2.0,8.0,74,0.00,,,0.00,462.000000,,2013-05-05 02:52:00,
2013-05-04 17:01:00,68.0,59.0,-100.00,West,273,2.0,8.0,74,0.00,,,0.00,462.000000,,2013-05-05 03:01:00,
2013-05-04 17:11:00,68.0,59.0,-100.00,West,273,2.0,8.0,74,0.00,,,0.00,462.000000,,2013-05-05 03:11:00,
2013-05-04 17:21:00,68.0,59.0,-100.00,West,273,2.0,8.0,74,0.00,,,0.00,462.000000,,2013-05-05 03:21:00,
2013-05-04 17:22:00,69.0,58.0,-100.00,SW,229,2.0,8.0,68,0.00,,,-99.99,479.000000,,2013-05-05 03:22:00,
2013-05-04 17:42:00,69.0,58.0,-100.00,SW,229,2.0,8.0,68,0.00,,,-99.99,479.000000,,2013-05-05 03:42:00,
2013-05-04 17:53:00,69.0,58.0,-100.00,SW,229,2.0,8.0,68,0.00,,,-99.99,479.000000,,2013-05-05 03:53:00,
2013-05-04 18:02:00,69.0,58.0,-100.00,SW,229,2.0,8.0,68,0.00,,,-99.99,479.000000,,2013-05-05 04:02:00,
2013-05-04 18:12:00,69.0,58.0,-100.00,SW,229,2.0,8.0,68,0.00,,,-99.99,479.000000,,2013-05-05 04:12:00,
2013-05-04 18:43:00,65.0,59.0,-100.00,SW,234,1.0,5.0,80,0.00,,,0.00,165.000000,,2013-05-05 04:43:00,
2013-05-04 18:52:00,65.0,59.0,-100.00,SW,234,1.0,5.0,80,0.00,,,0.00,165.000000,,2013-05-05 04:52:00,
2013-05-04 19:02:00,65.0,59.0,-100.00,SW,234,1.0,5.0,80,0.00,,,0.00,165.000000,,2013-05-05 05:02:00,
2013-05-04 19:12:00,65.0,59.0,-100.00,SW,234,1.0,5.0,80,0.00,,,0.00,165.000000,,2013-05-05 05:12:00,
2013-05-04 19:21:00,65.0,59.0,-100.00,SW,234,1.0,5.0,80,0.00,,,0.00,165.000000,,2013-05-05 05:21:00,
2013-05-04 19:42:00,61.0,57.0,-100.00,SSW,206,0.0,4.0,88,0.00,,,0.00,19.000000,,2013-05-05 05:42:00,
2013-05-04 19:52:00,61.0,57.0,-100.00,SSW,206,0.0,4.0,88,0.00,,,0.00,19.000000,,2013-05-05 05:52:00,
2013-05-04 20:01:00,61.0,57.0,-100.00,SSW,206,0.0,4.0,88,0.00,,,0.00,19.000000,,2013-05-05 06:01:00,
2013-05-04 20:11:00,61.0,57.0,-100.00,SSW,206,0.0,4.0,88,0.00,,,0.00,19.000000,,2013-05-05 06:11:00,
2013-05-04 20:21:00,61.0,57.0,-100.00,SSW,206,0.0,4.0,88,0.00,,,0.00,19.000000,,2013-05-05 06:21:00,
2013-05-04 20:42:00,57.0,55.0,-100.00,SSE,166,0.0,5.0,93,0.00,,,0.00,0.000000,,2013-05-05 06:42:00,
2013-05-04 20:52:00,57.0,55.0,-100.00,SSE,166,0.0,5.0,93,0.00,,,0.00,0.000000,,2013-05-05 06:52:00,
2013-05-04 21:01:00,57.0,55.0,-100.00,SSE,166,0.0,5.0,93,0.00,,,0.00,0.000000,,2013-05-05 07:01:00,
2013-05-04 21:11:00,57.0,55.0,-100.00,SSE,166,0.0,5.0,93,0.00,,,0.00,0.000000,,2013-05-05 07:11:00,
2013-05-04 21:21:00,57.0,55.0,-100.00,SSE,166,0.0,5.0,93,0.00,,,0.00,0.000000,,2013-05-05 07:21:00,
2013-05-04 21:42:00,56.0,54.0,-100.00,South,172,0.0,3.0,93,0.00,,,0.00,0.000000,,2013-05-05 07:42:00,
2013-05-04 21:52:00,56.0,54.0,-100.00,South,172,0.0,3.0,93,0.00,,,0.00,0.000000,,2013-05-05 07:52:00,
2013-05-04 22:02:00,56.0,54.0,-100.00,South,172,0.0,3.0,93,0.00,,,0.00,0.000000,,2013-05-05 08:02:00,
2013-05-04 22:11:00,56.0,54.0,-100.00,South,172,0.0,3.0,93,0.00,,,0.00,0.000000,,2013-05-05 08:11:00,
2013-05-04 22:21:00,56.0,54.0,-100.00,South,172,0.0,3.0,93,0.00,,,0.00,0.000000,,2013-05-05 08:21:00,
2013-05-04 22:42:00,56.0,54.0,-100.00,SSE,162,0.0,4.0,92,0.00,,,0.00,0.000000,,2013-05-05 08:42:00,
2013-05-04 22:53:00,56.0,54.0,-100.00,SSE,162,0.0,4.0,92,0.00,,,0.00,0.000000,,2013-05-05 08:53:00,
2013-05-04 23:01:00,56.0,54.0,-100.00,SSE,162,0.0,4.0,92,0.00,,,0.00,0.000000,,2013-05-05 09:01:00,
2013-05-04 23:11:00,56.0,54.0,-100.00,SSE,162,0.0,4.0,92,0.00,,,0.00,0.000000,,2013-05-05 09:11:00,
2013-05-04 23:21:00,56.0,54.0,-100.00,SSE,162,0.0,4.0,92,0.00,,,0.00,0.000000,,2013-05-05 09:21:00,
2013-05-04 23:22:00,55.0,53.0,-100.00,SSE,157,0.0,4.0,94,0.00,,,0.00,0.000000,,2013-05-05 09:22:00,
2013-05-04 23:42:00,55.0,53.0,-100.00,SSE,157,0.0,4.0,94,0.00,,,0.00,0.000000,,2013-05-05 09:42:00,
2013-05-04 23:52:00,55.0,53.0,-100.00,SSE,157,0.0,4.0,94,0.00,,,0.00,0.000000,,2013-05-05 09:52:00,